Time;durP1;ratioP1;P1;durP2;ratioP2;P2;SDS_P1;SDS_P2;PMS_P1;PMS_P2;Temp;Humidity;BMP_temperature;BMP_pressure;BME280_temperature;BME280_humidity;BME280_pressure;Samples;Min_cycle;Max_cycle;Signal;HPM_P1;HPM_P2
2024/04/07 00:02:27;;;;;;;6.20;2.00;;;;;;;;;;6224539;23;20187;-86
2024/04/07 00:05:31;;;;;;;4.63;2.13;;;;;;;;;;6213536;23;20156;-85
2024/04/07 00:08:35;;;;;;;5.07;2.40;;;;;;;;;;6232627;23;20605;-86
2024/04/07 00:11:39;;;;;;;5.87;2.23;;;;;;;;;;6193842;23;20187;-86
2024/04/07 00:14:44;;;;;;;5.27;2.10;;;;;;;;;;6214222;23;20148;-86
2024/04/07 00:17:49;;;;;;;2.43;1.90;;;;;;;;;;6232558;23;20160;-86
2024/04/07 00:21:02;;;;;;;2.83;2.00;;;;;;;;;;6196606;23;20483;-86
2024/04/07 00:24:06;;;;;;;5.17;1.87;;;;;;;;;;6214358;23;20180;-86
2024/04/07 00:27:10;;;;;;;2.63;2.00;;;;;;;;;;6214590;23;20603;-86
2024/04/07 00:30:14;;;;;;;3.37;2.20;;;;;;;;;;6214739;23;20156;-86
2024/04/07 00:33:18;;;;;;;4.17;2.30;;;;;;;;;;6214504;23;20156;-85
2024/04/07 00:36:23;;;;;;;7.00;2.20;;;;;;;;;;6214192;23;20152;-86
2024/04/07 00:39:27;;;;;;;2.77;1.83;;;;;;;;;;6232115;23;20156;-86
2024/04/07 00:42:31;;;;;;;2.63;1.90;;;;;;;;;;6225359;23;20191;-86
2024/04/07 00:45:35;;;;;;;5.70;1.70;;;;;;;;;;6213597;23;20152;-86
2024/04/07 00:48:39;;;;;;;5.07;2.00;;;;;;;;;;6232675;23;20152;-86
2024/04/07 00:51:44;;;;;;;4.30;1.80;;;;;;;;;;6228186;23;20188;-86
2024/04/07 00:54:48;;;;;;;4.60;2.00;;;;;;;;;;6213605;23;20152;-86
2024/04/07 00:57:54;;;;;;;3.30;2.30;;;;;;;;;;6197100;23;20148;-85
2024/04/07 01:00:58;;;;;;;3.43;2.20;;;;;;;;;;6231758;23;20152;-86
2024/04/07 01:04:03;;;;;;;3.77;2.37;;;;;;;;;;6195749;23;20492;-86
2024/04/07 01:07:07;;;;;;;3.23;2.40;;;;;;;;;;6232196;23;20152;-87
2024/04/07 01:10:11;;;;;;;3.97;2.33;;;;;;;;;;6213767;23;20156;-86
2024/04/07 01:13:15;;;;;;;4.27;2.37;;;;;;;;;;6203396;23;20172;-85
2024/04/07 01:16:20;;;;;;;3.33;2.60;;;;;;;;;;6213498;23;20152;-85
2024/04/07 01:19:24;;;;;;;2.57;2.23;;;;;;;;;;6232392;23;20594;-86
2024/04/07 01:22:29;;;;;;;4.23;2.40;;;;;;;;;;6206800;23;20196;-85
2024/04/07 01:25:33;;;;;;;4.73;2.33;;;;;;;;;;6214284;23;20156;-86
2024/04/07 01:28:37;;;;;;;2.40;2.20;;;;;;;;;;6196240;23;20148;-86
2024/04/07 01:31:41;;;;;;;3.30;2.40;;;;;;;;;;6192605;23;20183;-86
2024/04/07 01:34:46;;;;;;;2.60;2.40;;;;;;;;;;6213863;23;20148;-86
2024/04/07 01:37:50;;;;;;;2.40;2.20;;;;;;;;;;6213051;23;20156;-85
2024/04/07 01:40:54;;;;;;;2.03;1.70;;;;;;;;;;6231619;23;20152;-85
2024/04/07 01:43:58;;;;;;;2.87;2.10;;;;;;;;;;6196485;23;20180;-85
2024/04/07 01:47:02;;;;;;;3.13;1.70;;;;;;;;;;6231667;23;20156;-85
2024/04/07 01:50:09;;;;;;;3.43;1.50;;;;;;;;;;6231503;23;20205;-85
2024/04/07 01:53:13;;;;;;;4.10;1.63;;;;;;;;;;6203028;23;20191;-85
2024/04/07 01:56:18;;;;;;;3.13;1.70;;;;;;;;;;6213170;23;20149;-86
2024/04/07 01:59:22;;;;;;;3.23;1.60;;;;;;;;;;6193467;23;20152;-86
2024/04/07 02:02:26;;;;;;;5.33;2.10;;;;;;;;;;6204304;23;20507;-86
2024/04/07 02:05:31;;;;;;;3.53;1.97;;;;;;;;;;6229662;23;20180;-86
2024/04/07 02:08:35;;;;;;;3.83;1.80;;;;;;;;;;6212142;23;20157;-85
2024/04/07 02:11:40;;;;;;;2.83;1.90;;;;;;;;;;6227039;23;20188;-86
2024/04/07 02:14:45;;;;;;;4.40;2.17;;;;;;;;;;6230376;23;20595;-85
2024/04/07 02:17:50;;;;;;;2.83;1.90;;;;;;;;;;6195719;23;20156;-85
2024/04/07 02:20:54;;;;;;;2.80;2.10;;;;;;;;;;6212540;23;20152;-87
2024/04/07 02:23:59;;;;;;;2.90;2.00;;;;;;;;;;6231110;23;20184;-86
2024/04/07 02:27:05;;;;;;;3.67;2.10;;;;;;;;;;6213032;23;20152;-85
2024/04/07 02:30:09;;;;;;;5.00;2.07;;;;;;;;;;6196265;23;20160;-85
2024/04/07 02:33:14;;;;;;;3.90;2.10;;;;;;;;;;6220852;23;20666;-86
2024/04/07 02:36:18;;;;;;;2.57;1.90;;;;;;;;;;6196104;23;20152;-86
2024/04/07 02:39:22;;;;;;;3.93;2.17;;;;;;;;;;6213748;23;20156;-85
2024/04/07 02:42:26;;;;;;;2.73;1.90;;;;;;;;;;6206631;23;20199;-86
2024/04/07 02:48:53;;;;;;;3.70;2.17;;;;;;;;;;6230337;23;20152;-86
2024/04/07 02:51:57;;;;;;;5.37;2.40;;;;;;;;;;6208542;23;20504;-86
2024/04/07 02:55:02;;;;;;;3.63;2.40;;;;;;;;;;6195251;23;20590;-86
2024/04/07 02:58:06;;;;;;;3.37;2.10;;;;;;;;;;6230860;23;20152;-85
2024/04/07 03:01:13;;;;;;;3.03;1.70;;;;;;;;;;6211325;23;20175;-86
2024/04/07 03:04:19;;;;;;;5.13;2.30;;;;;;;;;;6212485;23;20630;-86
2024/04/07 03:07:23;;;;;;;4.53;2.50;;;;;;;;;;6212905;23;20156;-85
2024/04/07 03:10:28;;;;;;;3.83;2.40;;;;;;;;;;6231994;23;20157;-86
2024/04/07 03:13:33;;;;;;;4.17;2.40;;;;;;;;;;6230894;23;20469;-86
2024/04/07 03:16:37;;;;;;;4.60;2.30;;;;;;;;;;6212987;23;20149;-85
2024/04/07 03:19:41;;;;;;;5.53;2.50;;;;;;;;;;6231008;23;20153;-85
2024/04/07 03:22:46;;;;;;;4.17;2.60;;;;;;;;;;6203988;23;20184;-85
2024/04/07 03:25:50;;;;;;;5.10;2.60;;;;;;;;;;6231302;23;20180;-86
2024/04/07 03:28:54;;;;;;;4.97;2.70;;;;;;;;;;6212826;23;20156;-86
2024/04/07 03:31:58;;;;;;;4.97;2.53;;;;;;;;;;6225179;23;20191;-85
2024/04/07 03:35:03;;;;;;;4.20;2.60;;;;;;;;;;6212593;23;20152;-85
2024/04/07 03:38:07;;;;;;;3.93;2.80;;;;;;;;;;6177807;23;20153;-86
2024/04/07 03:41:12;;;;;;;5.63;2.43;;;;;;;;;;6211627;23;20187;-86
2024/04/07 03:44:17;;;;;;;4.57;2.40;;;;;;;;;;6213614;23;20631;-87
2024/04/07 03:47:22;;;;;;;4.27;2.43;;;;;;;;;;6197254;23;20152;-85
2024/04/07 03:50:26;;;;;;;3.93;2.60;;;;;;;;;;6213603;23;20156;-85
2024/04/07 03:53:31;;;;;;;2.97;2.53;;;;;;;;;;6214156;23;20148;-85
2024/04/07 03:56:36;;;;;;;3.97;2.90;;;;;;;;;;6196469;23;20148;-85
2024/04/07 03:59:40;;;;;;;4.10;2.90;;;;;;;;;;6231825;23;20156;-86
2024/04/07 04:02:45;;;;;;;3.73;2.73;;;;;;;;;;6188145;23;20192;-86
2024/04/07 04:05:53;;;;;;;7.50;2.90;;;;;;;;;;6193621;23;20184;-85
2024/04/07 04:08:58;;;;;;;4.67;2.47;;;;;;;;;;6211304;23;20481;-85
2024/04/07 04:12:03;;;;;;;2.83;2.23;;;;;;;;;;6190057;23;20188;-85
2024/04/07 04:15:07;;;;;;;3.20;2.50;;;;;;;;;;6178025;23;20180;-86
2024/04/07 04:18:12;;;;;;;4.30;2.40;;;;;;;;;;6213043;23;20472;-85
2024/04/07 04:21:16;;;;;;;4.20;2.60;;;;;;;;;;6229427;23;20188;-86
2024/04/07 04:24:23;;;;;;;5.17;2.40;;;;;;;;;;6231431;23;20153;-85
2024/04/07 04:27:29;;;;;;;3.63;2.63;;;;;;;;;;6212988;23;20156;-86
2024/04/07 04:30:34;;;;;;;6.87;2.70;;;;;;;;;;6195225;23;20599;-86
2024/04/07 04:33:38;;;;;;;7.63;2.50;;;;;;;;;;6195674;23;20603;-83
2024/04/07 04:36:42;;;;;;;2.63;2.00;;;;;;;;;;6215857;23;20152;-84
2024/04/07 04:39:47;;;;;;;4.10;2.00;;;;;;;;;;6216104;23;20149;-84
2024/04/07 04:42:52;;;;;;;2.10;1.90;;;;;;;;;;6150604;23;20209;-86
2024/04/07 04:46:03;;;;;;;2.67;1.83;;;;;;;;;;6166548;23;20497;-86
2024/04/07 04:49:25;;;;;;;4.80;2.10;;;;;;;;;;6133003;23;20154;-85
2024/04/07 04:52:30;;;;;;;3.27;2.90;;;;;;;;;;6127191;23;20189;-86
2024/04/07 04:55:34;;;;;;;4.17;2.57;;;;;;;;;;6168379;23;20149;-86
2024/04/07 04:58:38;;;;;;;4.57;3.13;;;;;;;;;;6134483;23;20157;-85
2024/04/07 05:01:43;;;;;;;6.47;3.10;;;;;;;;;;6136045;23;20185;-85
2024/04/07 05:04:50;;;;;;;4.77;3.13;;;;;;;;;;6167329;23;20181;-86
2024/04/07 05:07:55;;;;;;;3.03;2.60;;;;;;;;;;6132668;23;20161;-86
2024/04/07 05:11:03;;;;;;;4.07;2.87;;;;;;;;;;6133394;23;20154;-86
2024/04/07 05:14:07;;;;;;;4.67;2.80;;;;;;;;;;6132856;23;20430;-86
2024/04/07 05:17:11;;;;;;;4.00;2.70;;;;;;;;;;6149462;23;20145;-88
2024/04/07 05:20:16;;;;;;;5.67;3.10;;;;;;;;;;6137335;23;20153;-85
2024/04/07 05:23:21;;;;;;;5.43;3.37;;;;;;;;;;6163607;23;20193;-85
2024/04/07 05:26:25;;;;;;;6.13;3.70;;;;;;;;;;6171046;23;20181;-85
2024/04/07 05:29:29;;;;;;;7.13;3.60;;;;;;;;;;6171588;23;20610;-85
2024/04/07 05:32:34;;;;;;;4.73;3.47;;;;;;;;;;6165175;23;20188;-84
2024/04/07 05:35:38;;;;;;;3.73;3.03;;;;;;;;;;6152627;23;20442;-80
2024/04/07 05:38:42;;;;;;;5.33;3.30;;;;;;;;;;6169759;23;20153;-79
2024/04/07 05:41:48;;;;;;;4.63;2.97;;;;;;;;;;6167743;23;20227;-80
2024/04/07 05:44:53;;;;;;;3.20;2.73;;;;;;;;;;6170022;23;20185;-80
2024/04/07 05:47:57;;;;;;;6.13;3.40;;;;;;;;;;6197039;23;20153;-80
2024/04/07 05:51:05;;;;;;;4.60;3.20;;;;;;;;;;6198156;23;20153;-79
2024/04/07 05:54:09;;;;;;;4.03;2.57;;;;;;;;;;6182545;23;20161;-79
2024/04/07 05:57:13;;;;;;;3.80;2.80;;;;;;;;;;6182115;23;20153;-79
2024/04/07 06:00:18;;;;;;;3.70;2.70;;;;;;;;;;6182241;23;20157;-79
2024/04/07 06:03:22;;;;;;;3.60;2.90;;;;;;;;;;6173236;23;20188;-80
2024/04/07 06:06:27;;;;;;;7.70;3.23;;;;;;;;;;6186063;23;20212;-79
2024/04/07 06:09:31;;;;;;;3.87;2.90;;;;;;;;;;6182886;23;20157;-81
2024/04/07 06:12:35;;;;;;;4.43;3.23;;;;;;;;;;6177058;23;20185;-81
2024/04/07 06:15:39;;;;;;;5.23;2.80;;;;;;;;;;6201606;23;20153;-81
2024/04/07 06:18:46;;;;;;;5.40;2.83;;;;;;;;;;6200929;23;20156;-81
2024/04/07 06:21:50;;;;;;;4.87;2.73;;;;;;;;;;6163445;23;20188;-80
2024/04/07 06:24:57;;;;;;;4.33;2.93;;;;;;;;;;6199951;23;20157;-81
2024/04/07 06:28:01;;;;;;;3.60;3.10;;;;;;;;;;6201190;23;20153;-81
2024/04/07 06:31:05;;;;;;;3.20;2.90;;;;;;;;;;6202678;23;20153;-81
2024/04/07 06:34:09;;;;;;;4.27;2.90;;;;;;;;;;6184668;23;20156;-81
2024/04/07 06:37:13;;;;;;;3.80;2.93;;;;;;;;;;6184171;23;20153;-81
2024/04/07 06:40:17;;;;;;;4.30;3.40;;;;;;;;;;6181941;23;20152;-81
2024/04/07 06:43:22;;;;;;;6.97;3.30;;;;;;;;;;6190344;23;20670;-80
2024/04/07 06:46:26;;;;;;;8.90;3.03;;;;;;;;;;6200193;23;20184;-81
2024/04/07 06:49:30;;;;;;;4.13;3.10;;;;;;;;;;6198503;23;20473;-82
2024/04/07 06:52:34;;;;;;;3.93;2.70;;;;;;;;;;6175067;23;20189;-82
2024/04/07 06:55:38;;;;;;;5.10;2.70;;;;;;;;;;6180150;23;20591;-82
2024/04/07 06:58:42;;;;;;;8.40;2.90;;;;;;;;;;6197988;23;20157;-81
2024/04/07 07:01:47;;;;;;;2.47;2.20;;;;;;;;;;6196544;23;20188;-81
2024/04/07 07:04:51;;;;;;;3.93;2.40;;;;;;;;;;6199230;23;20595;-81
2024/04/07 07:07:55;;;;;;;4.67;2.67;;;;;;;;;;6197293;23;20603;-81
2024/04/07 07:11:00;;;;;;;5.03;2.60;;;;;;;;;;6199661;23;20153;-81
2024/04/07 07:14:04;;;;;;;4.20;2.60;;;;;;;;;;6199568;23;20157;-80
2024/04/07 07:17:08;;;;;;;3.30;2.40;;;;;;;;;;6201506;23;20153;-81
2024/04/07 07:20:13;;;;;;;5.00;2.30;;;;;;;;;;6201821;23;20149;-80
2024/04/07 07:23:17;;;;;;;4.03;2.50;;;;;;;;;;6192153;23;20193;-80
2024/04/07 07:26:21;;;;;;;6.00;2.43;;;;;;;;;;6183579;23;20181;-81
2024/04/07 07:29:25;;;;;;;4.60;2.10;;;;;;;;;;6200536;23;20161;-80
2024/04/07 07:32:30;;;;;;;2.73;2.20;;;;;;;;;;6196617;23;20192;-81
2024/04/07 07:35:37;;;;;;;4.57;2.10;;;;;;;;;;6202108;23;20152;-81
2024/04/07 07:38:41;;;;;;;3.20;1.67;;;;;;;;;;6184348;23;20152;-80
2024/04/07 07:41:46;;;;;;;1.80;1.47;;;;;;;;;;6198058;23;20204;-81
2024/04/07 07:44:50;;;;;;;2.90;1.63;;;;;;;;;;6184152;23;20153;-81
2024/04/07 07:47:54;;;;;;;2.00;1.10;;;;;;;;;;6201629;23;20588;-81
2024/04/07 07:50:58;;;;;;;2.70;1.60;;;;;;;;;;6183860;23;20152;-81
2024/04/07 07:54:03;;;;;;;2.07;1.30;;;;;;;;;;6201517;23;20152;-81
2024/04/07 07:57:06;;;;;;;4.57;1.43;;;;;;;;;;6201192;23;20469;-81
2024/04/07 08:00:11;;;;;;;3.67;1.80;;;;;;;;;;6202064;23;20153;-81
2024/04/07 08:03:15;;;;;;;5.07;1.80;;;;;;;;;;6191253;23;20192;-81
2024/04/07 08:06:20;;;;;;;3.30;1.80;;;;;;;;;;6183404;23;20184;-81
2024/04/07 08:09:24;;;;;;;2.50;1.70;;;;;;;;;;6201604;23;20156;-81
2024/04/07 08:12:28;;;;;;;4.37;1.70;;;;;;;;;;6196111;23;20509;-81
2024/04/07 08:15:33;;;;;;;2.60;1.37;;;;;;;;;;6183747;23;20149;-81
2024/04/07 08:18:37;;;;;;;4.13;1.43;;;;;;;;;;6201781;23;20161;-82
2024/04/07 08:21:42;;;;;;;3.43;1.40;;;;;;;;;;6181637;23;20189;-81
2024/04/07 08:24:45;;;;;;;3.47;1.60;;;;;;;;;;6183666;23;20157;-81
2024/04/07 08:27:49;;;;;;;2.17;1.20;;;;;;;;;;6183537;23;20149;-81
2024/04/07 08:30:53;;;;;;;2.40;1.30;;;;;;;;;;6201145;23;20153;-81
2024/04/07 08:33:58;;;;;;;2.10;1.20;;;;;;;;;;6198510;23;20184;-83
2024/04/07 08:37:03;;;;;;;7.40;2.00;;;;;;;;;;6182442;23;20149;-83
2024/04/07 08:40:08;;;;;;;3.33;1.20;;;;;;;;;;6182119;23;20162;-84
2024/04/07 08:43:12;;;;;;;4.97;1.37;;;;;;;;;;6173994;23;20197;-84
2024/04/07 08:46:18;;;;;;;1.73;1.50;;;;;;;;;;6200461;23;20185;-84
2024/04/07 08:49:26;;;;;;;2.53;1.57;;;;;;;;;;6201473;23;20591;-84
2024/04/07 08:52:30;;;;;;;4.50;1.40;;;;;;;;;;6159578;23;20188;-84
2024/04/07 08:55:36;;;;;;;3.75;1.42;;;;;;;;;;6182001;23;20156;-84
2024/04/07 08:58:41;;;;;;;1.98;1.35;;;;;;;;;;6182955;23;20149;-84
2024/04/07 09:01:45;;;;;;;2.17;1.40;;;;;;;;;;6181637;23;20652;-84
2024/04/07 09:04:49;;;;;;;2.00;1.20;;;;;;;;;;6183825;23;20160;-84
2024/04/07 09:07:53;;;;;;;3.65;1.60;;;;;;;;;;6166682;23;20157;-84
2024/04/07 09:10:58;;;;;;;1.95;1.13;;;;;;;;;;6184319;23;20157;-84
2024/04/07 09:14:02;;;;;;;8.40;1.23;;;;;;;;;;6166828;23;20159;-84
2024/04/07 09:17:08;;;;;;;3.53;1.40;;;;;;;;;;6184060;23;20597;-84
2024/04/07 09:20:21;;;;;;;5.70;1.42;;;;;;;;;;6148980;23;20592;-84
2024/04/07 09:23:25;;;;;;;3.78;1.17;;;;;;;;;;6156047;23;20659;-85
2024/04/07 09:26:31;;;;;;;2.50;1.27;;;;;;;;;;6165190;23;20184;-84
2024/04/07 09:29:38;;;;;;;4.78;1.10;;;;;;;;;;6149583;23;20156;-84
2024/04/07 09:32:42;;;;;;;5.88;2.38;;;;;;;;;;6194670;23;20188;-84
2024/04/07 09:35:46;;;;;;;2.60;1.50;;;;;;;;;;6199921;23;20473;-84
2024/04/07 09:38:50;;;;;;;18.98;6.07;;;;;;;;;;6181202;23;20157;-84
2024/04/07 09:42:00;;;;;;;11.07;1.88;;;;;;;;;;6161567;23;20200;-84
2024/04/07 09:45:09;;;;;;;8.18;3.20;;;;;;;;;;6165041;23;20157;-84
2024/04/07 09:48:18;;;;;;;5.45;2.80;;;;;;;;;;6182770;23;20470;-84
2024/04/07 09:51:29;;;;;;;7.85;2.22;;;;;;;;;;6182384;23;20154;-84
2024/04/07 09:54:45;;;;;;;6.20;1.70;;;;;;;;;;6181661;23;20158;-84
2024/04/07 09:57:49;;;;;;;5.53;1.95;;;;;;;;;;6201077;23;20636;-84
2024/04/07 10:00:54;;;;;;;7.35;1.90;;;;;;;;;;6182560;23;20153;-84
2024/04/07 10:03:59;;;;;;;6.43;1.90;;;;;;;;;;6182874;23;20161;-84
2024/04/07 10:07:05;;;;;;;9.75;1.90;;;;;;;;;;6202022;23;20149;-84
2024/04/07 10:10:09;;;;;;;10.45;2.33;;;;;;;;;;6183351;23;20157;-84
2024/04/07 10:13:23;;;;;;;9.98;2.30;;;;;;;;;;6173825;23;20193;-86
2024/04/07 10:16:27;;;;;;;5.82;1.83;;;;;;;;;;6164152;23;20180;-86
2024/04/07 10:19:31;;;;;;;10.15;2.85;;;;;;;;;;6180078;23;20153;-86
2024/04/07 10:22:36;;;;;;;5.72;1.60;;;;;;;;;;6175164;23;20189;-86
2024/04/07 10:25:49;;;;;;;15.48;2.10;;;;;;;;;;6164017;23;20157;-86
2024/04/07 10:28:55;;;;;;;6.80;2.03;;;;;;;;;;6180172;23;20171;-86
2024/04/07 10:32:00;;;;;;;7.13;1.80;;;;;;;;;;6161694;23;20671;-86
2024/04/07 10:35:06;;;;;;;5.22;1.90;;;;;;;;;;6180944;23;20157;-86
2024/04/07 10:38:12;;;;;;;6.68;1.52;;;;;;;;;;6163804;23;20185;-86
2024/04/07 10:41:30;;;;;;;10.57;2.22;;;;;;;;;;6181783;23;20173;-86
2024/04/07 10:44:35;;;;;;;9.70;2.20;;;;;;;;;;6149795;23;20153;-86
2024/04/07 10:47:40;;;;;;;7.03;1.60;;;;;;;;;;6167513;23;20150;-86
2024/04/07 10:50:44;;;;;;;6.45;2.00;;;;;;;;;;6168061;23;20153;-86
2024/04/07 10:54:00;;;;;;;8.43;1.95;;;;;;;;;;6183115;23;20157;-86
2024/04/07 10:57:04;;;;;;;5.63;1.73;;;;;;;;;;6165360;23;20185;-84
2024/04/07 11:00:09;;;;;;;5.78;1.88;;;;;;;;;;6181255;23;20208;-80
2024/04/07 11:03:16;;;;;;;8.38;1.98;;;;;;;;;;6198148;23;20164;-80
2024/04/07 11:06:23;;;;;;;9.02;1.98;;;;;;;;;;6234525;23;20473;-79
2024/04/07 11:09:28;;;;;;;9.52;1.65;;;;;;;;;;6217161;23;20581;-79
2024/04/07 11:12:33;;;;;;;9.27;1.70;;;;;;;;;;6215295;23;20152;-80
2024/04/07 11:15:38;;;;;;;7.35;2.10;;;;;;;;;;6215902;23;20156;-79
2024/04/07 11:18:43;;;;;;;8.50;2.08;;;;;;;;;;6200325;23;20149;-80
2024/04/07 11:21:47;;;;;;;9.13;1.63;;;;;;;;;;6216142;23;20157;-80
2024/04/07 11:24:51;;;;;;;12.35;2.08;;;;;;;;;;6233340;23;20585;-79
2024/04/07 11:27:56;;;;;;;7.47;1.75;;;;;;;;;;6173353;23;20184;-80
2024/04/07 11:31:01;;;;;;;7.05;1.88;;;;;;;;;;6216733;23;20153;-80
2024/04/07 11:34:07;;;;;;;15.27;2.25;;;;;;;;;;6198023;23;20160;-81
2024/04/07 11:37:11;;;;;;;9.00;2.28;;;;;;;;;;6228707;23;20196;-79
2024/04/07 11:40:15;;;;;;;8.32;1.90;;;;;;;;;;6215991;23;20153;-80
2024/04/07 11:43:19;;;;;;;10.60;2.00;;;;;;;;;;6202226;23;20156;-80
2024/04/07 11:46:24;;;;;;;9.43;2.13;;;;;;;;;;6216686;23;20153;-79
2024/04/07 11:49:28;;;;;;;8.15;1.90;;;;;;;;;;6235719;23;20157;-79
2024/04/07 11:52:36;;;;;;;7.28;1.73;;;;;;;;;;6200757;23;20152;-79
2024/04/07 11:55:40;;;;;;;7.85;2.00;;;;;;;;;;6200027;23;20156;-79
2024/04/07 11:58:45;;;;;;;12.88;2.08;;;;;;;;;;6199151;23;20160;-80
2024/04/07 12:01:49;;;;;;;9.00;1.90;;;;;;;;;;6199531;23;20152;-79
2024/04/07 12:04:53;;;;;;;6.03;1.90;;;;;;;;;;6218399;23;20597;-80
2024/04/07 12:07:57;;;;;;;7.05;1.65;;;;;;;;;;6194767;23;20196;-80
2024/04/07 12:11:02;;;;;;;8.73;1.98;;;;;;;;;;6235489;23;20152;-79
2024/04/07 12:14:08;;;;;;;4.53;2.00;;;;;;;;;;6216239;23;20153;-79
2024/04/07 12:17:12;;;;;;;6.53;1.90;;;;;;;;;;6195789;23;20196;-80
2024/04/07 12:20:17;;;;;;;10.68;2.25;;;;;;;;;;6235500;23;20160;-80
2024/04/07 12:23:21;;;;;;;10.55;2.17;;;;;;;;;;6199366;23;20156;-78
2024/04/07 12:26:26;;;;;;;7.15;1.90;;;;;;;;;;6216571;23;20149;-80
2024/04/07 12:29:30;;;;;;;9.27;1.80;;;;;;;;;;6216558;23;20153;-80
2024/04/07 12:32:34;;;;;;;4.90;1.63;;;;;;;;;;6216726;23;20152;-79
2024/04/07 12:35:39;;;;;;;7.63;2.10;;;;;;;;;;6200114;23;20157;-80
2024/04/07 12:38:43;;;;;;;11.45;1.77;;;;;;;;;;6216791;23;20629;-80
2024/04/07 12:41:49;;;;;;;9.93;2.15;;;;;;;;;;6215472;23;20160;-80
2024/04/07 12:44:54;;;;;;;10.07;1.75;;;;;;;;;;6216639;23;20458;-79
2024/04/07 12:47:58;;;;;;;7.45;1.83;;;;;;;;;;6209346;23;20184;-79
2024/04/07 12:51:02;;;;;;;8.55;1.95;;;;;;;;;;6183021;23;20156;-80
2024/04/07 12:54:07;;;;;;;9.40;2.03;;;;;;;;;;6198856;23;20149;-80
2024/04/07 12:57:12;;;;;;;8.52;2.20;;;;;;;;;;6212754;23;20189;-80
2024/04/07 13:00:16;;;;;;;9.68;1.92;;;;;;;;;;6231410;23;20184;-81
2024/04/07 13:03:20;;;;;;;10.35;2.60;;;;;;;;;;6200227;23;20153;-80
2024/04/07 13:06:24;;;;;;;10.65;2.28;;;;;;;;;;6215891;23;20186;-78
2024/04/07 13:09:28;;;;;;;8.35;2.10;;;;;;;;;;6200724;23;20152;-80
2024/04/07 13:12:33;;;;;;;15.40;2.60;;;;;;;;;;6217623;23;20157;-80
2024/04/07 13:15:37;;;;;;;16.10;2.33;;;;;;;;;;6235542;23;20153;-79
2024/04/07 13:18:41;;;;;;;11.32;2.15;;;;;;;;;;6226307;23;20188;-79
2024/04/07 13:21:45;;;;;;;18.58;2.75;;;;;;;;;;6216131;23;20157;-80
2024/04/07 13:24:50;;;;;;;11.10;2.17;;;;;;;;;;6198788;23;20153;-79
2024/04/07 13:27:57;;;;;;;11.05;2.30;;;;;;;;;;6209343;23;20652;-79
2024/04/07 13:31:01;;;;;;;13.52;2.38;;;;;;;;;;6200272;23;20152;-80
2024/04/07 13:34:05;;;;;;;12.38;2.55;;;;;;;;;;6216968;23;20153;-80
2024/04/07 13:37:09;;;;;;;13.05;2.22;;;;;;;;;;6231240;23;20200;-78
2024/04/07 13:40:14;;;;;;;10.77;2.33;;;;;;;;;;6216353;23;20153;-80
2024/04/07 13:43:19;;;;;;;11.70;2.78;;;;;;;;;;6199684;23;20156;-79
2024/04/07 13:46:23;;;;;;;14.30;2.95;;;;;;;;;;6183598;23;20153;-79
2024/04/07 13:49:30;;;;;;;13.10;2.90;;;;;;;;;;6216255;23;20148;-80
2024/04/07 13:52:35;;;;;;;15.73;2.60;;;;;;;;;;6198855;23;20153;-80
2024/04/07 13:55:39;;;;;;;12.82;2.83;;;;;;;;;;6216819;23;20156;-80
2024/04/07 13:58:44;;;;;;;15.65;2.53;;;;;;;;;;6235086;23;20625;-80
2024/04/07 14:01:48;;;;;;;10.82;2.60;;;;;;;;;;6200446;23;20172;-80
2024/04/07 14:04:53;;;;;;;15.38;2.70;;;;;;;;;;6181906;23;20156;-80
2024/04/07 14:07:57;;;;;;;13.55;2.85;;;;;;;;;;6190871;23;20180;-79
2024/04/07 14:11:00;;;;;;;12.05;2.53;;;;;;;;;;6181116;23;20156;-80
2024/04/07 14:14:07;;;;;;;14.35;2.65;;;;;;;;;;6199376;23;20159;-79
2024/04/07 14:17:11;;;;;;;17.80;2.65;;;;;;;;;;6194558;23;20652;-80
2024/04/07 14:20:16;;;;;;;13.60;2.83;;;;;;;;;;6179980;23;20156;-79
2024/04/07 14:23:20;;;;;;;21.00;3.22;;;;;;;;;;6197755;23;20473;-80
2024/04/07 14:26:23;;;;;;;16.25;2.72;;;;;;;;;;6197539;23;20157;-79
2024/04/07 14:29:28;;;;;;;14.80;2.75;;;;;;;;;;6233281;23;20156;-79
2024/04/07 14:32:32;;;;;;;13.13;2.80;;;;;;;;;;6216230;23;20154;-79
2024/04/07 14:35:50;;;;;;;19.92;3.03;;;;;;;;;;6199737;23;20159;-78
2024/04/07 14:38:57;;;;;;;26.00;3.10;;;;;;;;;;6224782;23;20176;-79
2024/04/07 14:42:02;;;;;;;19.40;3.10;;;;;;;;;;6224001;23;20477;-80
2024/04/07 14:45:08;;;;;;;14.82;2.40;;;;;;;;;;6226289;23;20156;-81
2024/04/07 14:48:13;;;;;;;14.13;2.50;;;;;;;;;;6216381;23;20187;-80
2024/04/07 14:51:18;;;;;;;14.25;2.78;;;;;;;;;;6192033;23;20150;-80
2024/04/07 14:54:22;;;;;;;9.82;2.53;;;;;;;;;;6226208;23;20158;-79
2024/04/07 14:57:31;;;;;;;17.15;2.80;;;;;;;;;;6215556;23;20207;-79
2024/04/07 15:00:36;;;;;;;15.80;2.70;;;;;;;;;;6202458;23;20180;-78
2024/04/07 15:03:41;;;;;;;15.32;3.15;;;;;;;;;;6207584;23;20155;-78
2024/04/07 15:06:45;;;;;;;13.27;2.80;;;;;;;;;;6223569;23;20195;-79
2024/04/07 15:09:52;;;;;;;13.70;2.30;;;;;;;;;;6208568;23;20156;-79
2024/04/07 15:12:56;;;;;;;14.30;2.70;;;;;;;;;;6208742;23;20150;-80
2024/04/07 15:16:04;;;;;;;14.38;2.53;;;;;;;;;;6225454;23;20148;-81
2024/04/07 15:19:08;;;;;;;12.25;3.28;;;;;;;;;;6225468;23;20182;-80
2024/04/07 15:22:13;;;;;;;14.07;2.55;;;;;;;;;;6225206;23;20153;-80
2024/04/07 15:25:17;;;;;;;19.70;2.83;;;;;;;;;;6191220;23;20148;-81
2024/04/07 15:28:22;;;;;;;16.15;2.53;;;;;;;;;;6216269;23;20183;-80
2024/04/07 15:31:27;;;;;;;13.75;2.30;;;;;;;;;;6224715;23;20157;-81
2024/04/07 15:34:34;;;;;;;11.88;2.90;;;;;;;;;;6207337;23;20160;-80
2024/04/07 15:37:38;;;;;;;15.45;2.63;;;;;;;;;;6220725;23;20188;-81
2024/04/07 15:40:43;;;;;;;15.68;2.95;;;;;;;;;;6226877;23;20154;-80
2024/04/07 15:43:47;;;;;;;15.73;3.05;;;;;;;;;;6226429;23;20154;-81
2024/04/07 15:46:51;;;;;;;17.33;2.58;;;;;;;;;;6206955;23;20191;-79
2024/04/07 15:49:55;;;;;;;14.10;2.65;;;;;;;;;;6191684;23;20146;-81
2024/04/07 15:53:00;;;;;;;13.15;2.40;;;;;;;;;;6210229;23;20159;-81
2024/04/07 15:56:04;;;;;;;13.88;2.83;;;;;;;;;;6194063;23;20150;-80
2024/04/07 15:59:08;;;;;;;14.30;3.08;;;;;;;;;;6209890;23;20179;-81
2024/04/07 16:02:12;;;;;;;17.23;2.40;;;;;;;;;;6209399;23;20154;-80
2024/04/07 16:05:17;;;;;;;15.45;2.85;;;;;;;;;;6225530;23;20152;-80
2024/04/07 16:08:21;;;;;;;16.45;2.80;;;;;;;;;;6200072;23;20187;-81
2024/04/07 16:11:25;;;;;;;17.40;2.53;;;;;;;;;;6210030;23;20152;-80
2024/04/07 16:14:30;;;;;;;14.82;3.00;;;;;;;;;;6226968;23;20161;-79
2024/04/07 16:17:40;;;;;;;20.00;2.67;;;;;;;;;;6220419;23;20189;-80
2024/04/07 16:20:44;;;;;;;18.83;2.70;;;;;;;;;;6226418;23;20156;-80
2024/04/07 16:23:48;;;;;;;23.35;3.00;;;;;;;;;;6191819;23;20156;-79
2024/04/07 16:26:53;;;;;;;14.23;2.38;;;;;;;;;;6206877;23;20186;-80
2024/04/07 16:29:57;;;;;;;14.80;2.55;;;;;;;;;;6226026;23;20148;-80
2024/04/07 16:33:01;;;;;;;20.33;2.97;;;;;;;;;;6211316;23;20154;-80
2024/04/07 16:36:05;;;;;;;10.10;2.33;;;;;;;;;;6229977;23;20160;-79
2024/04/07 16:39:11;;;;;;;13.88;2.80;;;;;;;;;;6227434;23;20183;-79
2024/04/07 16:42:16;;;;;;;17.25;3.20;;;;;;;;;;6225835;23;20153;-79
2024/04/07 16:45:20;;;;;;;11.02;2.97;;;;;;;;;;6225683;23;20605;-80
2024/04/07 16:48:25;;;;;;;16.13;2.50;;;;;;;;;;6215060;23;20187;-81
2024/04/07 16:51:29;;;;;;;14.93;2.88;;;;;;;;;;6207944;23;20154;-80
2024/04/07 16:54:33;;;;;;;11.95;2.60;;;;;;;;;;6226234;23;20159;-80
2024/04/07 16:57:37;;;;;;;9.95;2.05;;;;;;;;;;6220197;23;20185;-81
2024/04/07 17:00:44;;;;;;;13.02;2.63;;;;;;;;;;6194462;23;20216;-86
2024/04/07 17:03:49;;;;;;;12.43;2.58;;;;;;;;;;6215803;23;20162;-84
2024/04/07 17:06:53;;;;;;;11.27;2.28;;;;;;;;;;6231705;23;20470;-83
2024/04/07 17:09:57;;;;;;;11.65;2.70;;;;;;;;;;6193720;23;20592;-83
2024/04/07 17:13:02;;;;;;;16.65;2.47;;;;;;;;;;6231296;23;20159;-84
2024/04/07 17:16:07;;;;;;;11.13;2.75;;;;;;;;;;6213153;23;20600;-82
2024/04/07 17:19:12;;;;;;;9.53;2.40;;;;;;;;;;6211252;23;20179;-82
2024/04/07 17:22:18;;;;;;;10.27;2.47;;;;;;;;;;6195642;23;20601;-82
2024/04/07 17:25:23;;;;;;;10.37;2.27;;;;;;;;;;6230406;23;20482;-82
2024/04/07 17:28:27;;;;;;;11.43;2.77;;;;;;;;;;6230567;23;20153;-81
2024/04/07 17:31:31;;;;;;;15.93;2.80;;;;;;;;;;6202827;23;20195;-82
2024/04/07 17:34:36;;;;;;;17.47;2.80;;;;;;;;;;6229288;23;20158;-82
2024/04/07 17:37:40;;;;;;;14.83;2.63;;;;;;;;;;6230284;23;20453;-82
2024/04/07 17:40:44;;;;;;;12.37;2.50;;;;;;;;;;6189430;23;20187;-82
2024/04/07 17:43:48;;;;;;;8.67;2.17;;;;;;;;;;6229223;23;20167;-81
2024/04/07 17:46:53;;;;;;;13.07;2.60;;;;;;;;;;6229402;23;20461;-81
2024/04/07 17:49:58;;;;;;;9.33;2.30;;;;;;;;;;6210190;23;20150;-81
2024/04/07 17:53:02;;;;;;;14.93;3.30;;;;;;;;;;6194440;23;20592;-81
2024/04/07 17:56:07;;;;;;;12.77;2.70;;;;;;;;;;6229346;23;20154;-81
2024/04/07 17:59:12;;;;;;;9.63;2.20;;;;;;;;;;6211087;23;20180;-81
2024/04/07 18:02:16;;;;;;;11.37;2.60;;;;;;;;;;6219180;23;20630;-81
2024/04/07 18:05:20;;;;;;;12.90;2.53;;;;;;;;;;6211033;23;20591;-81
2024/04/07 18:08:24;;;;;;;11.00;2.50;;;;;;;;;;6211062;23;20152;-82
2024/04/07 18:11:28;;;;;;;13.47;2.73;;;;;;;;;;6203704;23;20195;-82
2024/04/07 18:14:32;;;;;;;15.47;2.97;;;;;;;;;;6229496;23;20156;-81
2024/04/07 18:17:37;;;;;;;14.23;2.90;;;;;;;;;;6229349;23;20156;-81
2024/04/07 18:20:41;;;;;;;15.80;3.17;;;;;;;;;;6190293;23;20184;-81
2024/04/07 18:23:45;;;;;;;15.90;3.10;;;;;;;;;;6211356;23;20160;-81
2024/04/07 18:26:49;;;;;;;11.80;3.07;;;;;;;;;;6229430;23;20148;-82